createdAt,value
2017-09-26T00:02:22.655Z,9.20
2017-09-26T00:04:51.962Z,9.20
2017-09-26T00:07:21.199Z,9.20
2017-09-26T00:09:49.827Z,9.20
2017-09-26T00:12:18.403Z,9.10
2017-09-26T00:14:46.867Z,9.10
2017-09-26T00:17:15.464Z,9.10
2017-09-26T00:19:43.927Z,9.20
2017-09-26T00:22:12.403Z,9.20
2017-09-26T00:24:40.877Z,9.10
2017-09-26T00:27:09.167Z,9.00
2017-09-26T00:29:37.647Z,8.90
2017-09-26T00:32:05.764Z,8.90
2017-09-26T00:34:34.834Z,8.90
2017-09-26T00:37:03.243Z,8.90
2017-09-26T00:39:32.278Z,8.90
2017-09-26T00:42:00.767Z,8.90
2017-09-26T00:44:29.231Z,8.90
2017-09-26T00:46:57.711Z,9.00
2017-09-26T00:49:26.596Z,8.80
2017-09-26T00:51:55.475Z,8.80
2017-09-26T00:54:24.731Z,8.80
2017-09-26T00:56:53.017Z,8.80
2017-09-26T00:59:21.308Z,8.80
2017-09-26T01:01:50.387Z,8.70
2017-09-26T01:04:18.040Z,8.70
2017-09-26T01:06:50.175Z,8.70
2017-09-26T01:09:18.643Z,8.70
2017-09-26T01:11:47.894Z,8.80
2017-09-26T01:14:18.168Z,8.70
2017-09-26T01:16:47.215Z,8.70
2017-09-26T01:19:15.678Z,8.60
2017-09-26T01:21:43.968Z,8.70
2017-09-26T01:24:12.458Z,8.70
2017-09-26T01:26:40.763Z,8.70
2017-09-26T01:29:09.067Z,8.60
2017-09-26T01:31:38.192Z,8.60
2017-09-26T01:34:06.663Z,8.60
2017-09-26T01:36:35.156Z,8.70
2017-09-26T01:39:03.075Z,8.60
2017-09-26T01:41:31.567Z,8.70
2017-09-26T01:44:00.036Z,8.80
2017-09-26T01:46:28.684Z,8.70
2017-09-26T01:48:56.983Z,8.70
2017-09-26T01:51:25.275Z,8.60
2017-09-26T01:53:53.555Z,8.70
2017-09-26T01:56:22.448Z,8.70
2017-09-26T01:59:10.588Z,8.40
2017-09-26T02:01:39.043Z,8.60
2017-09-26T02:04:07.524Z,8.60
2017-09-26T02:06:35.996Z,8.70
2017-09-26T02:09:03.570Z,8.60
2017-09-26T02:11:32.046Z,8.50
2017-09-26T02:14:00.523Z,8.40
2017-09-26T02:16:29.007Z,8.50
2017-09-26T02:18:57.475Z,8.40
2017-09-26T02:21:25.958Z,8.40
2017-09-26T02:23:54.259Z,8.40
2017-09-26T02:26:22.770Z,8.40
2017-09-26T02:28:51.248Z,8.30
2017-09-26T02:31:19.723Z,8.30
2017-09-26T02:33:48.179Z,8.30
2017-09-26T02:36:16.661Z,8.20
2017-09-26T02:38:45.123Z,8.20
2017-09-26T02:41:13.627Z,8.30
2017-09-26T02:43:42.110Z,8.30
2017-09-26T02:46:10.612Z,8.50
2017-09-26T02:48:39.092Z,8.70
2017-09-26T02:51:07.556Z,8.70
2017-09-26T02:53:36.039Z,8.80
2017-09-26T02:56:04.522Z,8.80
2017-09-26T02:58:33.003Z,8.90
2017-09-26T03:01:01.472Z,8.90
2017-09-26T03:03:29.983Z,8.80
2017-09-26T03:05:58.443Z,8.80
2017-09-26T03:08:26.921Z,8.80
2017-09-26T03:10:55.396Z,8.90
2017-09-26T03:13:23.939Z,8.90
2017-09-26T03:15:52.423Z,8.90
2017-09-26T03:18:20.890Z,8.80
2017-09-26T03:20:49.382Z,8.80
2017-09-26T03:23:17.842Z,8.90
2017-09-26T03:25:46.335Z,8.90
2017-09-26T03:28:14.888Z,8.80
2017-09-26T03:30:43.160Z,8.90
2017-09-26T03:33:11.640Z,8.90
2017-09-26T03:35:39.911Z,8.80
2017-09-26T03:38:08.974Z,9.00
2017-09-26T03:40:38.210Z,9.10
2017-09-26T03:43:07.448Z,9.10
2017-09-26T03:45:35.715Z,9.00
2017-09-26T03:48:04.203Z,9.20
2017-09-26T03:50:32.776Z,9.20
2017-09-26T03:53:01.075Z,9.20
2017-09-26T03:55:29.535Z,9.10
2017-09-26T03:57:57.800Z,9.20
2017-09-26T04:00:26.208Z,9.20
2017-09-26T04:02:54.479Z,9.20
2017-09-26T04:05:22.731Z,9.20
2017-09-26T04:07:50.571Z,9.20
2017-09-26T04:10:19.827Z,9.10
2017-09-26T04:12:48.302Z,9.10
2017-09-26T04:15:16.767Z,9.10
2017-09-26T04:17:45.263Z,9.10
2017-09-26T04:20:13.808Z,9.00
2017-09-26T04:22:43.046Z,8.90
2017-09-26T04:25:11.347Z,8.90
2017-09-26T04:27:39.796Z,9.00
2017-09-26T04:30:07.903Z,9.00
2017-09-26T04:32:36.371Z,9.10
2017-09-26T04:35:04.954Z,9.10
2017-09-26T04:37:33.439Z,9.20
2017-09-26T04:40:02.009Z,9.00
2017-09-26T04:42:30.332Z,9.00
2017-09-26T04:45:00.471Z,9.10
2017-09-26T04:47:29.722Z,9.10
2017-09-26T04:49:58.196Z,9.10
2017-09-26T04:52:26.663Z,9.10
2017-09-26T04:54:55.247Z,9.10
2017-09-26T04:57:24.480Z,9.20
2017-09-26T04:59:52.965Z,9.10
2017-09-26T05:02:21.443Z,9.10
2017-09-26T05:04:49.736Z,9.10
2017-09-26T05:07:18.215Z,8.90
2017-09-26T05:09:46.878Z,8.90
2017-09-26T05:12:15.367Z,8.80
2017-09-26T05:14:43.831Z,8.90
2017-09-26T05:17:12.323Z,9.00
2017-09-26T05:19:40.827Z,9.00
2017-09-26T05:22:09.335Z,9.10
2017-09-26T05:24:37.811Z,9.10
2017-09-26T05:27:06.297Z,9.10
2017-09-26T05:29:34.793Z,9.20
2017-09-26T05:32:04.052Z,9.30
2017-09-26T05:34:32.512Z,9.20
2017-09-26T05:37:00.998Z,9.30
2017-09-26T05:39:29.484Z,9.30
2017-09-26T05:41:57.955Z,9.20
2017-09-26T05:44:26.439Z,9.20
2017-09-26T05:46:54.907Z,9.20
2017-09-26T05:49:24.175Z,9.20
2017-09-26T05:51:52.717Z,9.10
2017-09-26T05:54:21.179Z,9.20
2017-09-26T05:56:49.671Z,9.30
2017-09-26T05:59:18.147Z,9.30
2017-09-26T06:01:46.627Z,9.20
2017-09-26T06:04:15.959Z,9.10
2017-09-26T06:06:44.537Z,9.10
2017-09-26T06:09:13.003Z,9.10
2017-09-26T06:11:41.480Z,9.20
2017-09-26T06:14:09.956Z,9.30
2017-09-26T06:16:38.695Z,9.30
2017-09-26T06:19:07.159Z,9.40
2017-09-26T06:21:35.658Z,9.40
2017-09-26T06:24:03.931Z,9.40
2017-09-26T06:26:32.363Z,9.40
2017-09-26T06:29:01.413Z,9.50
2017-09-26T06:31:29.718Z,9.40
2017-09-26T06:33:59.704Z,9.40
2017-09-26T06:36:28.182Z,9.50
2017-09-26T06:38:56.665Z,9.50
2017-09-26T06:41:25.123Z,9.50
2017-09-26T06:43:53.612Z,9.50
2017-09-26T06:46:22.068Z,9.40
2017-09-26T06:48:51.315Z,9.50
2017-09-26T06:51:19.783Z,9.50
2017-09-26T06:53:48.256Z,9.50
2017-09-26T06:56:16.742Z,9.50
2017-09-26T06:58:45.230Z,9.60
2017-09-26T07:01:13.730Z,9.70
2017-09-26T07:03:42.204Z,9.80
2017-09-26T07:06:10.673Z,10.00
2017-09-26T07:08:39.153Z,10.10
2017-09-26T07:11:07.624Z,10.30
2017-09-26T07:13:36.272Z,10.50
2017-09-26T07:16:04.752Z,10.70
2017-09-26T07:18:33.484Z,11.00
2017-09-26T07:21:01.968Z,11.20
2017-09-26T07:23:30.431Z,11.50
2017-09-26T07:25:59.679Z,11.80
2017-09-26T07:28:28.147Z,11.70
2017-09-26T07:30:56.632Z,11.70
2017-09-26T07:33:25.107Z,11.70
2017-09-26T07:35:53.574Z,11.70
2017-09-26T07:38:22.094Z,11.60
2017-09-26T07:40:50.779Z,11.60
2017-09-26T07:43:19.268Z,11.70
2017-09-26T07:45:47.739Z,11.80
2017-09-26T07:48:16.053Z,11.80
2017-09-26T07:50:45.116Z,12.10
2017-09-26T07:53:13.580Z,12.00
2017-09-26T07:55:42.204Z,12.40
2017-09-26T07:58:10.679Z,12.60
2017-09-26T08:00:39.820Z,12.90
2017-09-26T08:03:09.062Z,13.40
2017-09-26T08:05:38.298Z,13.30
2017-09-26T08:08:07.492Z,13.60
2017-09-26T08:10:36.135Z,13.70
2017-09-26T08:13:04.663Z,13.70
2017-09-26T08:15:33.140Z,13.90
2017-09-26T08:18:01.628Z,13.80
2017-09-26T08:20:30.107Z,13.90
2017-09-26T08:22:58.627Z,13.80
2017-09-26T08:25:27.975Z,13.70
2017-09-26T08:27:56.464Z,13.60
2017-09-26T08:30:24.929Z,13.80
2017-09-26T08:32:53.406Z,13.80
2017-09-26T08:35:21.992Z,13.80
2017-09-26T08:37:50.473Z,13.90
2017-09-26T08:40:18.767Z,13.90
2017-09-26T08:42:47.264Z,14.00
2017-09-26T08:45:15.757Z,14.10
2017-09-26T08:47:44.225Z,14.20
2017-09-26T08:50:12.739Z,14.20
2017-09-26T08:52:41.969Z,14.10
2017-09-26T08:55:10.543Z,14.00
2017-09-26T08:57:39.036Z,14.20
2017-09-26T09:00:07.503Z,14.10
2017-09-26T09:02:36.752Z,14.60
2017-09-26T09:05:05.211Z,14.60
2017-09-26T09:07:33.514Z,14.90
2017-09-26T09:10:02.079Z,15.20
2017-09-26T09:12:30.602Z,15.50
2017-09-26T09:14:59.064Z,15.60
2017-09-26T09:17:27.552Z,15.40
2017-09-26T09:19:56.040Z,15.40
2017-09-26T09:22:24.519Z,15.50
2017-09-26T09:24:52.986Z,15.60
2017-09-26T09:27:21.484Z,15.50
2017-09-26T09:29:50.986Z,15.70
2017-09-26T09:32:19.475Z,15.70
2017-09-26T09:34:47.934Z,15.70
2017-09-26T09:37:16.411Z,15.60
2017-09-26T09:39:44.995Z,15.60
2017-09-26T09:42:13.485Z,15.60
2017-09-26T09:44:41.965Z,15.80
2017-09-26T09:47:10.444Z,15.60
2017-09-26T09:49:38.935Z,15.80
2017-09-26T09:52:07.089Z,15.90
2017-09-26T09:54:35.782Z,15.70
2017-09-26T09:57:04.264Z,15.80
2017-09-26T09:59:32.845Z,15.90
2017-09-26T10:02:01.337Z,15.90
2017-09-26T10:04:29.815Z,16.10
2017-09-26T10:06:58.305Z,16.10
2017-09-26T10:09:26.768Z,16.20
2017-09-26T10:11:55.235Z,16.10
2017-09-26T10:14:24.483Z,16.40
2017-09-26T10:16:53.043Z,16.30
2017-09-26T10:19:21.530Z,16.40
2017-09-26T10:21:50.022Z,16.40
2017-09-26T10:24:18.516Z,16.70
2017-09-26T10:26:47.136Z,16.60
2017-09-26T10:29:16.398Z,16.70
2017-09-26T10:31:45.876Z,16.60
2017-09-26T10:34:14.362Z,16.60
2017-09-26T10:36:42.864Z,16.70
2017-09-26T10:39:11.335Z,16.70
2017-09-26T10:41:39.810Z,16.80
2017-09-26T10:44:09.206Z,16.90
2017-09-26T10:46:37.693Z,16.80
2017-09-26T10:49:06.252Z,17.00
2017-09-26T10:51:35.168Z,17.10
2017-09-26T10:54:03.724Z,17.10
2017-09-26T10:56:32.946Z,17.30
2017-09-26T10:59:01.452Z,17.20
2017-09-26T11:01:29.941Z,17.30
2017-09-26T11:03:58.572Z,17.30
2017-09-26T11:06:27.847Z,17.30
2017-09-26T11:08:56.322Z,17.20
2017-09-26T11:11:24.795Z,17.40
2017-09-26T11:13:53.360Z,17.60
2017-09-26T11:16:21.823Z,17.50
2017-09-26T11:18:50.881Z,17.70
2017-09-26T11:21:19.173Z,17.70
2017-09-26T11:23:47.452Z,17.80
2017-09-26T11:26:15.947Z,17.80
2017-09-26T11:28:44.447Z,18.00
2017-09-26T11:31:12.931Z,17.90
2017-09-26T11:33:41.412Z,18.10
2017-09-26T11:36:09.895Z,18.40
2017-09-26T11:38:38.288Z,18.40
2017-09-26T11:41:06.781Z,18.30
2017-09-26T11:43:35.247Z,18.30
2017-09-26T11:46:03.799Z,18.10
2017-09-26T11:48:33.351Z,18.40
2017-09-26T11:51:01.815Z,18.40
2017-09-26T11:53:30.303Z,18.60
2017-09-26T11:55:58.776Z,18.70
2017-09-26T11:58:27.251Z,18.50
2017-09-26T12:00:56.300Z,18.40
2017-09-26T12:03:24.762Z,18.40
2017-09-26T12:05:53.259Z,18.50
2017-09-26T12:08:21.772Z,18.70
2017-09-26T12:10:50.302Z,18.80
2017-09-26T12:13:24.423Z,18.80
2017-09-26T12:15:52.887Z,18.90
2017-09-26T12:18:21.354Z,19.10
2017-09-26T12:20:50.743Z,19.40
2017-09-26T12:23:19.248Z,19.30
2017-09-26T12:25:47.991Z,19.20
2017-09-26T12:28:16.483Z,19.40
2017-09-26T12:30:44.984Z,19.70
2017-09-26T12:33:14.226Z,19.80
2017-09-26T12:35:42.691Z,19.70
2017-09-26T12:38:11.171Z,19.60
2017-09-26T12:40:39.645Z,19.90
2017-09-26T12:43:08.912Z,20.00
2017-09-26T12:45:37.383Z,20.00
2017-09-26T12:48:05.875Z,19.70
2017-09-26T12:50:34.448Z,20.00
2017-09-26T12:53:02.961Z,20.00
2017-09-26T12:55:32.196Z,20.50
2017-09-26T12:58:00.690Z,20.40
2017-09-26T13:00:29.175Z,20.70
2017-09-26T13:02:57.634Z,20.80
2017-09-26T13:05:26.136Z,20.60
2017-09-26T13:07:54.615Z,20.80
2017-09-26T13:10:23.224Z,20.90
2017-09-26T13:12:51.695Z,20.90
2017-09-26T13:15:20.183Z,21.10
2017-09-26T13:17:48.640Z,21.30
2017-09-26T13:20:17.143Z,21.00
2017-09-26T13:22:45.627Z,20.70
2017-09-26T13:25:14.171Z,20.90
2017-09-26T13:27:43.467Z,20.60
2017-09-26T13:30:12.710Z,20.20
2017-09-26T13:32:41.188Z,20.10
2017-09-26T13:35:09.687Z,20.00
2017-09-26T13:37:38.150Z,19.60
2017-09-26T13:40:06.649Z,19.50
2017-09-26T13:42:35.211Z,19.50
2017-09-26T13:45:03.689Z,19.50
2017-09-26T13:47:32.262Z,19.40
2017-09-26T13:50:00.746Z,19.40
2017-09-26T13:52:29.235Z,19.20
2017-09-26T13:54:57.715Z,19.30
2017-09-26T13:57:25.986Z,19.10
2017-09-26T13:59:54.450Z,18.90
2017-09-26T14:02:23.681Z,18.90
2017-09-26T14:04:52.428Z,18.90
2017-09-26T14:07:20.899Z,19.00
2017-09-26T14:09:49.396Z,19.20
2017-09-26T14:12:17.891Z,19.50
2017-09-26T14:14:47.148Z,20.10
2017-09-26T14:17:15.651Z,20.10
2017-09-26T14:19:44.132Z,20.20
2017-09-26T14:22:12.632Z,20.30
2017-09-26T14:24:41.162Z,20.10
2017-09-26T14:27:09.677Z,20.30
2017-09-26T14:29:38.141Z,20.40
2017-09-26T14:32:06.619Z,20.20
2017-09-26T14:34:35.188Z,20.00
2017-09-26T14:37:03.660Z,19.60
2017-09-26T14:39:32.144Z,19.30
2017-09-26T14:42:00.654Z,19.10
2017-09-26T14:44:29.242Z,18.90
2017-09-26T14:46:57.722Z,18.80
2017-09-26T14:49:26.246Z,18.70
2017-09-26T14:51:54.716Z,18.50
2017-09-26T14:54:22.860Z,18.30
2017-09-26T14:56:51.342Z,18.20
2017-09-26T14:59:19.827Z,18.40
2017-09-26T15:01:48.296Z,18.20
2017-09-26T15:04:16.874Z,18.20
2017-09-26T15:06:45.355Z,17.90
2017-09-26T15:09:13.818Z,17.60
2017-09-26T15:11:43.055Z,17.30
2017-09-26T15:14:11.627Z,17.30
2017-09-26T15:16:40.089Z,17.30
2017-09-26T15:19:08.751Z,17.40
2017-09-26T15:21:37.350Z,17.30
2017-09-26T15:24:06.612Z,17.00
2017-09-26T15:26:35.085Z,16.90
2017-09-26T15:29:03.660Z,16.40
2017-09-26T15:31:32.146Z,16.30
2017-09-26T15:34:00.628Z,16.10
2017-09-26T15:36:29.103Z,16.00
2017-09-26T15:38:57.711Z,15.90
2017-09-26T15:41:26.272Z,16.10
2017-09-26T15:43:54.743Z,16.40
2017-09-26T15:46:23.330Z,16.20
2017-09-26T15:48:51.815Z,16.40
2017-09-26T15:51:20.288Z,16.30
2017-09-26T15:53:48.771Z,16.50
2017-09-26T15:56:17.253Z,16.30
2017-09-26T15:58:45.722Z,16.40
2017-09-26T16:01:14.953Z,15.50
2017-09-26T16:03:43.585Z,15.70
2017-09-26T16:06:13.047Z,15.20
2017-09-26T16:08:41.524Z,15.10
2017-09-26T16:11:10.002Z,15.00
2017-09-26T16:13:38.463Z,14.80
2017-09-26T16:16:06.947Z,14.80
2017-09-26T16:18:35.435Z,14.60
2017-09-26T16:21:03.926Z,14.60
2017-09-26T16:23:32.399Z,14.60
2017-09-26T16:26:00.711Z,14.50
2017-09-26T16:28:29.283Z,14.40
2017-09-26T16:30:57.778Z,14.30
2017-09-26T16:33:26.350Z,14.20
2017-09-26T16:35:54.859Z,14.10
2017-09-26T16:38:23.334Z,14.10
2017-09-26T16:40:51.830Z,14.10
2017-09-26T16:43:20.314Z,14.10
2017-09-26T16:45:48.807Z,14.10
2017-09-26T16:48:17.284Z,14.10
2017-09-26T16:50:46.524Z,14.00
2017-09-26T16:53:15.019Z,13.90
2017-09-26T16:55:43.495Z,14.00
2017-09-26T16:58:11.995Z,13.90
2017-09-26T17:00:40.478Z,13.90
2017-09-26T17:03:08.988Z,13.80
2017-09-26T17:05:38.226Z,13.80
2017-09-26T17:08:07.476Z,14.00
2017-09-26T17:10:35.956Z,13.90
2017-09-26T17:13:04.443Z,13.90
2017-09-26T17:15:32.908Z,13.80
2017-09-26T17:18:01.409Z,13.90
2017-09-26T17:20:29.728Z,13.90
2017-09-26T17:22:59.018Z,13.90
2017-09-26T17:25:28.302Z,13.90
2017-09-26T17:27:56.771Z,13.80
2017-09-26T17:30:25.292Z,13.80
2017-09-26T17:32:54.543Z,13.80
2017-09-26T17:35:23.047Z,13.70
2017-09-26T17:37:51.541Z,13.60
2017-09-26T17:40:20.059Z,13.50
2017-09-26T17:42:49.104Z,13.60
2017-09-26T17:45:17.595Z,13.50
2017-09-26T17:47:46.076Z,13.60
2017-09-26T17:50:14.584Z,13.70
2017-09-26T17:52:43.844Z,13.60
2017-09-26T17:55:12.340Z,13.50
2017-09-26T17:57:40.877Z,13.70
2017-09-26T18:00:09.543Z,13.60
2017-09-26T18:02:38.107Z,13.60
2017-09-26T18:05:06.398Z,13.60
2017-09-26T18:07:35.656Z,13.40
2017-09-26T18:10:04.149Z,13.40
2017-09-26T18:12:33.251Z,13.40
2017-09-26T18:15:01.985Z,13.40
2017-09-26T18:17:31.233Z,13.60
2017-09-26T18:19:59.741Z,13.70
2017-09-26T18:22:28.231Z,13.70
2017-09-26T18:24:56.754Z,13.50
2017-09-26T18:27:25.304Z,13.80
2017-09-26T18:29:54.551Z,13.70
2017-09-26T18:32:23.137Z,13.70
2017-09-26T18:34:51.619Z,13.40
2017-09-26T18:37:19.931Z,13.40
2017-09-26T18:39:48.403Z,13.50
2017-09-26T18:42:16.968Z,13.40
2017-09-26T18:44:45.443Z,13.40
2017-09-26T18:47:13.939Z,13.30
2017-09-26T18:49:42.422Z,13.40
2017-09-26T18:52:10.916Z,13.40
2017-09-26T18:54:39.392Z,13.30
2017-09-26T18:57:07.864Z,13.20
2017-09-26T18:59:36.370Z,13.20
2017-09-26T19:02:04.922Z,13.10
2017-09-26T19:04:33.416Z,13.10
2017-09-26T19:07:01.943Z,13.30
2017-09-26T19:09:31.224Z,13.10
2017-09-26T19:12:01.208Z,13.20
2017-09-26T19:14:29.713Z,13.20
2017-09-26T19:16:58.174Z,13.10
2017-09-26T19:19:26.765Z,13.10
2017-09-26T19:21:55.402Z,13.00
2017-09-26T19:24:24.675Z,13.20
2017-09-26T19:26:53.172Z,13.10
2017-09-26T19:29:21.665Z,13.20
2017-09-26T19:31:50.937Z,13.20
2017-09-26T19:34:19.407Z,13.20
2017-09-26T19:36:48.093Z,13.10
2017-09-26T19:39:16.573Z,13.20
2017-09-26T19:41:44.867Z,13.10
2017-09-26T19:44:13.372Z,13.20
2017-09-26T19:46:41.899Z,13.30
2017-09-26T19:49:10.524Z,13.20
2017-09-26T19:51:39.002Z,13.10
2017-09-26T19:54:07.502Z,13.30
2017-09-26T19:56:35.991Z,13.30
2017-09-26T19:59:04.509Z,13.10
2017-09-26T20:01:32.993Z,13.00
2017-09-26T20:04:01.473Z,13.20
2017-09-26T20:06:29.993Z,13.10
2017-09-26T20:08:58.498Z,13.20
2017-09-26T20:11:27.010Z,13.10
2017-09-26T20:13:56.268Z,13.10
2017-09-26T20:16:24.801Z,13.00
2017-09-26T20:18:53.351Z,13.00
2017-09-26T20:21:21.857Z,13.20
2017-09-26T20:23:51.100Z,13.10
2017-09-26T20:26:19.599Z,13.10
2017-09-26T20:28:48.154Z,13.10
2017-09-26T20:31:16.759Z,13.00
2017-09-26T20:33:45.248Z,13.00
2017-09-26T20:36:13.937Z,13.00
2017-09-26T20:38:42.442Z,12.80
2017-09-26T20:41:10.928Z,12.80
2017-09-26T20:43:39.403Z,12.80
2017-09-26T20:46:07.904Z,12.80
2017-09-26T20:48:37.295Z,12.90
2017-09-26T20:51:05.763Z,12.80
2017-09-26T20:53:35.010Z,12.90
2017-09-26T20:56:03.310Z,12.90
2017-09-26T20:58:31.972Z,12.90
2017-09-26T21:01:00.612Z,12.70
2017-09-26T21:03:29.174Z,12.80
2017-09-26T21:05:57.656Z,12.80
2017-09-26T21:08:26.170Z,12.80
2017-09-26T21:10:54.659Z,12.70
2017-09-26T21:13:23.144Z,12.80
2017-09-26T21:15:51.643Z,12.60
2017-09-26T21:18:20.164Z,12.70
2017-09-26T21:20:48.652Z,12.70
2017-09-26T21:23:17.125Z,12.70
2017-09-26T21:25:45.607Z,12.70
2017-09-26T21:28:14.919Z,12.70
2017-09-26T21:30:43.411Z,12.70
2017-09-26T21:33:11.712Z,12.70
2017-09-26T21:35:40.191Z,12.50
2017-09-26T21:38:10.179Z,12.30
2017-09-26T21:40:38.647Z,12.30
2017-09-26T21:43:07.116Z,12.30
2017-09-26T21:45:35.608Z,12.30
2017-09-26T21:48:04.093Z,12.50
2017-09-26T21:50:32.410Z,12.40
2017-09-26T21:53:00.955Z,12.30
2017-09-26T21:55:29.423Z,12.30
2017-09-26T21:57:58.747Z,12.20
2017-09-26T22:00:27.223Z,12.20
2017-09-26T22:02:55.671Z,12.10
2017-09-26T22:05:24.671Z,12.00
2017-09-26T22:07:53.911Z,11.90
2017-09-26T22:10:22.388Z,11.90
2017-09-26T22:12:50.867Z,12.00
2017-09-26T22:15:19.355Z,12.00
2017-09-26T22:17:47.860Z,11.90
2017-09-26T22:20:16.347Z,11.90
2017-09-26T22:22:44.851Z,11.80
2017-09-26T22:25:13.314Z,11.90
2017-09-26T22:27:41.848Z,11.90
2017-09-26T22:30:10.340Z,11.70
2017-09-26T22:32:38.804Z,11.70
2017-09-26T22:35:08.055Z,11.50
2017-09-26T22:37:36.518Z,11.50
2017-09-26T22:40:05.020Z,11.40
2017-09-26T22:42:33.486Z,11.60
2017-09-26T22:45:01.963Z,11.40
2017-09-26T22:47:30.443Z,11.50
2017-09-26T22:49:58.940Z,11.40
2017-09-26T22:52:27.411Z,11.40
2017-09-26T22:54:55.883Z,11.30
2017-09-26T22:57:24.383Z,11.30
2017-09-26T22:59:52.851Z,11.30
2017-09-26T23:02:21.316Z,11.40
2017-09-26T23:04:49.778Z,11.30
2017-09-26T23:07:19.051Z,11.20
2017-09-26T23:09:47.511Z,11.20
2017-09-26T23:12:15.992Z,11.20
2017-09-26T23:14:44.454Z,11.30
2017-09-26T23:17:12.950Z,11.10
2017-09-26T23:19:41.231Z,11.20
2017-09-26T23:22:09.719Z,11.20
2017-09-26T23:24:38.172Z,11.00
2017-09-26T23:27:06.643Z,11.10
2017-09-26T23:29:35.884Z,11.00
2017-09-26T23:32:04.359Z,10.90
2017-09-26T23:34:32.843Z,10.80
2017-09-26T23:37:01.302Z,10.80
2017-09-26T23:39:29.798Z,10.70
2017-09-26T23:41:58.266Z,10.70
2017-09-26T23:44:26.728Z,10.70
2017-09-26T23:46:55.975Z,10.60
2017-09-26T23:49:24.431Z,10.60
2017-09-26T23:51:52.914Z,10.70
2017-09-26T23:54:21.374Z,10.60
2017-09-26T23:56:50.623Z,10.60
2017-09-26T23:59:19.091Z,10.60
